Terminal Aerodrome Forecast
Issued by NWS Twin Cities, MN

Home | Current Version | Previous Version | Graphics & Text | Print | Product List | Glossary On
Versions: 1 2 3 4 5 6 7 8 9 10 11 12 13 14 15 16 17 18 19 20
858
FTUS43 KMPX 272107 AAA
TAFEAU
TAF AMD
KEAU 272107Z 2721/2818 06008KT P6SM -SHRA SCT025 OVC050
     FM280800 14004KT 4SM -SHRA BR SCT007 OVC010
     FM281500 15006KT 6SM -SHRA BR OVC015=

USA.gov is the U.S. government's official web portal to all federal, state and local government web resources and services.